sensor_id;sensor_type;location;lat;lon;timestamp;P1;durP1;ratioP1;P2;durP2;ratioP2
11269;SDS011;5692;48.956;9.200;2024-03-06T00:02:04;357.42;;;340.33;;
11269;SDS011;5692;48.956;9.200;2024-03-06T00:04:31;336.88;;;320.77;;
11269;SDS011;5692;48.956;9.200;2024-03-06T00:06:57;345.02;;;328.52;;
11269;SDS011;5692;48.956;9.200;2024-03-06T00:09:23;332.67;;;316.77;;
11269;SDS011;5692;48.956;9.200;2024-03-06T00:11:51;342.80;;;326.42;;
11269;SDS011;5692;48.956;9.200;2024-03-06T00:14:18;331.45;;;315.65;;
11269;SDS011;5692;48.956;9.200;2024-03-06T00:16:44;338.75;;;322.55;;
11269;SDS011;5692;48.956;9.200;2024-03-06T00:19:10;336.30;;;320.25;;
11269;SDS011;5692;48.956;9.200;2024-03-06T00:21:36;347.25;;;330.65;;
11269;SDS011;5692;48.956;9.200;2024-03-06T00:24:02;346.88;;;330.30;;
11269;SDS011;5692;48.956;9.200;2024-03-06T00:26:36;341.15;;;324.85;;
11269;SDS011;5692;48.956;9.200;2024-03-06T00:29:02;347.67;;;331.08;;
11269;SDS011;5692;48.956;9.200;2024-03-06T00:31:28;347.40;;;330.80;;
11269;SDS011;5692;48.956;9.200;2024-03-06T00:33:54;342.90;;;326.50;;
11269;SDS011;5692;48.956;9.200;2024-03-06T00:36:20;327.80;;;312.13;;
11269;SDS011;5692;48.956;9.200;2024-03-06T00:38:47;349.70;;;333.00;;
11269;SDS011;5692;48.956;9.200;2024-03-06T00:41:13;341.80;;;325.47;;
11269;SDS011;5692;48.956;9.200;2024-03-06T00:43:39;345.02;;;328.58;;
11269;SDS011;5692;48.956;9.200;2024-03-06T00:46:05;336.80;;;320.70;;
11269;SDS011;5692;48.956;9.200;2024-03-06T00:48:31;340.50;;;324.25;;
11269;SDS011;5692;48.956;9.200;2024-03-06T00:50:57;321.08;;;305.73;;
11269;SDS011;5692;48.956;9.200;2024-03-06T00:53:24;328.87;;;313.17;;
11269;SDS011;5692;48.956;9.200;2024-03-06T00:55:49;324.95;;;309.45;;
11269;SDS011;5692;48.956;9.200;2024-03-06T00:58:15;328.80;;;313.10;;
11269;SDS011;5692;48.956;9.200;2024-03-06T01:00:41;346.25;;;329.70;;
11269;SDS011;5692;48.956;9.200;2024-03-06T01:03:07;333.85;;;317.90;;
11269;SDS011;5692;48.956;9.200;2024-03-06T01:05:34;335.63;;;319.60;;
11269;SDS011;5692;48.956;9.200;2024-03-06T01:07:59;326.30;;;310.73;;
11269;SDS011;5692;48.956;9.200;2024-03-06T01:10:26;327.38;;;311.75;;
11269;SDS011;5692;48.956;9.200;2024-03-06T01:12:51;328.45;;;312.75;;
11269;SDS011;5692;48.956;9.200;2024-03-06T01:15:18;315.58;;;300.48;;
11269;SDS011;5692;48.956;9.200;2024-03-06T01:17:44;310.30;;;295.50;;
11269;SDS011;5692;48.956;9.200;2024-03-06T01:20:10;308.77;;;294.02;;
11269;SDS011;5692;48.956;9.200;2024-03-06T01:22:36;326.13;;;310.52;;
11269;SDS011;5692;48.956;9.200;2024-03-06T01:25:06;330.58;;;314.77;;
11269;SDS011;5692;48.956;9.200;2024-03-06T01:27:32;333.70;;;317.80;;
11269;SDS011;5692;48.956;9.200;2024-03-06T01:29:58;337.75;;;321.63;;
11269;SDS011;5692;48.956;9.200;2024-03-06T01:32:24;326.90;;;311.27;;
11269;SDS011;5692;48.956;9.200;2024-03-06T01:34:50;328.13;;;312.42;;
11269;SDS011;5692;48.956;9.200;2024-03-06T01:37:16;317.58;;;302.40;;
11269;SDS011;5692;48.956;9.200;2024-03-06T01:39:42;319.05;;;303.83;;
11269;SDS011;5692;48.956;9.200;2024-03-06T01:42:08;335.27;;;319.27;;
11269;SDS011;5692;48.956;9.200;2024-03-06T01:44:34;333.10;;;317.20;;
11269;SDS011;5692;48.956;9.200;2024-03-06T01:47:00;319.65;;;304.35;;
11269;SDS011;5692;48.956;9.200;2024-03-06T01:49:26;323.15;;;307.73;;
11269;SDS011;5692;48.956;9.200;2024-03-06T01:51:53;316.20;;;301.10;;
11269;SDS011;5692;48.956;9.200;2024-03-06T01:54:20;314.77;;;299.75;;
11269;SDS011;5692;48.956;9.200;2024-03-06T01:56:46;322.77;;;307.35;;
11269;SDS011;5692;48.956;9.200;2024-03-06T01:59:13;323.42;;;307.98;;
11269;SDS011;5692;48.956;9.200;2024-03-06T02:01:43;316.80;;;301.67;;
11269;SDS011;5692;48.956;9.200;2024-03-06T02:04:09;343.85;;;327.45;;
11269;SDS011;5692;48.956;9.200;2024-03-06T02:06:40;343.25;;;326.85;;
11269;SDS011;5692;48.956;9.200;2024-03-06T02:09:10;310.52;;;295.67;;
11269;SDS011;5692;48.956;9.200;2024-03-06T02:11:38;314.10;;;299.10;;
11269;SDS011;5692;48.956;9.200;2024-03-06T02:14:04;318.33;;;303.13;;
11269;SDS011;5692;48.956;9.200;2024-03-06T02:16:34;341.40;;;325.10;;
11269;SDS011;5692;48.956;9.200;2024-03-06T02:19:00;354.10;;;337.20;;
11269;SDS011;5692;48.956;9.200;2024-03-06T02:21:26;328.15;;;312.48;;
11269;SDS011;5692;48.956;9.200;2024-03-06T02:23:52;341.98;;;325.65;;
11269;SDS011;5692;48.956;9.200;2024-03-06T02:26:19;350.48;;;333.77;;
11269;SDS011;5692;48.956;9.200;2024-03-06T02:28:49;352.20;;;335.38;;
11269;SDS011;5692;48.956;9.200;2024-03-06T02:31:15;348.83;;;332.15;;
11269;SDS011;5692;48.956;9.200;2024-03-06T02:33:42;343.67;;;327.25;;
11269;SDS011;5692;48.956;9.200;2024-03-06T02:36:08;344.80;;;328.33;;
11269;SDS011;5692;48.956;9.200;2024-03-06T02:38:36;340.80;;;324.52;;
11269;SDS011;5692;48.956;9.200;2024-03-06T02:41:02;354.17;;;337.27;;
11269;SDS011;5692;48.956;9.200;2024-03-06T02:43:29;357.98;;;340.88;;
11269;SDS011;5692;48.956;9.200;2024-03-06T02:45:55;361.23;;;343.98;;
11269;SDS011;5692;48.956;9.200;2024-03-06T02:48:21;363.33;;;345.98;;
11269;SDS011;5692;48.956;9.200;2024-03-06T02:50:47;354.55;;;337.65;;
11269;SDS011;5692;48.956;9.200;2024-03-06T02:53:13;344.75;;;328.25;;
11269;SDS011;5692;48.956;9.200;2024-03-06T02:55:39;324.95;;;309.45;;
11269;SDS011;5692;48.956;9.200;2024-03-06T02:58:05;366.23;;;348.73;;
11269;SDS011;5692;48.956;9.200;2024-03-06T03:00:34;341.38;;;325.05;;
11269;SDS011;5692;48.956;9.200;2024-03-06T03:03:00;359.40;;;342.25;;
11269;SDS011;5692;48.956;9.200;2024-03-06T03:05:26;345.77;;;329.27;;
11269;SDS011;5692;48.956;9.200;2024-03-06T03:07:52;345.63;;;329.13;;
11269;SDS011;5692;48.956;9.200;2024-03-06T03:10:18;347.05;;;330.48;;
11269;SDS011;5692;48.956;9.200;2024-03-06T03:12:44;358.38;;;341.25;;
11269;SDS011;5692;48.956;9.200;2024-03-06T03:15:13;346.23;;;329.70;;
11269;SDS011;5692;48.956;9.200;2024-03-06T03:17:40;348.77;;;332.10;;
11269;SDS011;5692;48.956;9.200;2024-03-06T03:20:06;346.50;;;329.95;;
11269;SDS011;5692;48.956;9.200;2024-03-06T03:22:36;343.77;;;327.38;;
11269;SDS011;5692;48.956;9.200;2024-03-06T03:25:03;336.70;;;320.60;;
11269;SDS011;5692;48.956;9.200;2024-03-06T03:27:32;341.58;;;325.27;;
11269;SDS011;5692;48.956;9.200;2024-03-06T03:29:58;342.30;;;325.95;;
11269;SDS011;5692;48.956;9.200;2024-03-06T03:32:24;336.85;;;320.75;;
11269;SDS011;5692;48.956;9.200;2024-03-06T03:34:53;339.13;;;322.92;;
11269;SDS011;5692;48.956;9.200;2024-03-06T03:37:19;344.08;;;327.63;;
11269;SDS011;5692;48.956;9.200;2024-03-06T03:39:45;351.50;;;334.70;;
11269;SDS011;5692;48.956;9.200;2024-03-06T03:42:11;357.48;;;340.40;;
11269;SDS011;5692;48.956;9.200;2024-03-06T03:44:37;334.35;;;318.40;;
11269;SDS011;5692;48.956;9.200;2024-03-06T03:47:03;351.55;;;334.75;;
11269;SDS011;5692;48.956;9.200;2024-03-06T03:49:29;351.33;;;334.55;;
11269;SDS011;5692;48.956;9.200;2024-03-06T03:51:55;349.35;;;332.65;;
11269;SDS011;5692;48.956;9.200;2024-03-06T03:54:20;329.00;;;313.30;;
11269;SDS011;5692;48.956;9.200;2024-03-06T03:56:46;342.83;;;326.43;;
11269;SDS011;5692;48.956;9.200;2024-03-06T03:59:13;334.15;;;318.15;;
11269;SDS011;5692;48.956;9.200;2024-03-06T04:01:40;342.47;;;326.10;;
11269;SDS011;5692;48.956;9.200;2024-03-06T04:04:06;348.05;;;331.42;;
11269;SDS011;5692;48.956;9.200;2024-03-06T04:06:33;345.85;;;329.35;;
11269;SDS011;5692;48.956;9.200;2024-03-06T04:08:59;355.08;;;338.13;;
11269;SDS011;5692;48.956;9.200;2024-03-06T04:11:25;337.40;;;321.30;;
11269;SDS011;5692;48.956;9.200;2024-03-06T04:13:51;346.92;;;330.38;;
11269;SDS011;5692;48.956;9.200;2024-03-06T04:16:17;359.45;;;342.27;;
11269;SDS011;5692;48.956;9.200;2024-03-06T04:18:44;342.98;;;326.58;;
11269;SDS011;5692;48.956;9.200;2024-03-06T04:21:13;341.00;;;324.70;;
11269;SDS011;5692;48.956;9.200;2024-03-06T04:23:40;344.60;;;328.10;;
11269;SDS011;5692;48.956;9.200;2024-03-06T04:26:06;341.83;;;325.50;;
11269;SDS011;5692;48.956;9.200;2024-03-06T04:28:31;349.33;;;332.63;;
11269;SDS011;5692;48.956;9.200;2024-03-06T04:30:58;336.77;;;320.67;;
11269;SDS011;5692;48.956;9.200;2024-03-06T04:33:23;340.02;;;323.80;;
11269;SDS011;5692;48.956;9.200;2024-03-06T04:35:50;365.90;;;348.42;;
11269;SDS011;5692;48.956;9.200;2024-03-06T04:38:17;365.92;;;348.42;;
11269;SDS011;5692;48.956;9.200;2024-03-06T04:40:43;346.38;;;329.88;;
11269;SDS011;5692;48.956;9.200;2024-03-06T04:43:10;339.50;;;323.27;;
11269;SDS011;5692;48.956;9.200;2024-03-06T04:45:36;356.23;;;339.23;;
11269;SDS011;5692;48.956;9.200;2024-03-06T04:48:04;338.92;;;322.73;;
11269;SDS011;5692;48.956;9.200;2024-03-06T04:50:31;361.38;;;344.10;;
11269;SDS011;5692;48.956;9.200;2024-03-06T04:52:57;339.90;;;323.70;;
11269;SDS011;5692;48.956;9.200;2024-03-06T04:55:23;340.98;;;324.67;;
11269;SDS011;5692;48.956;9.200;2024-03-06T04:57:50;331.55;;;315.73;;
11269;SDS011;5692;48.956;9.200;2024-03-06T05:00:16;336.20;;;320.15;;
11269;SDS011;5692;48.956;9.200;2024-03-06T05:02:43;356.75;;;339.73;;
11269;SDS011;5692;48.956;9.200;2024-03-06T05:05:09;361.13;;;343.88;;
11269;SDS011;5692;48.956;9.200;2024-03-06T05:07:35;342.67;;;326.27;;
11269;SDS011;5692;48.956;9.200;2024-03-06T05:10:04;361.15;;;343.90;;
11269;SDS011;5692;48.956;9.200;2024-03-06T05:12:32;365.40;;;347.95;;
11269;SDS011;5692;48.956;9.200;2024-03-06T05:14:59;350.50;;;333.77;;
11269;SDS011;5692;48.956;9.200;2024-03-06T05:17:25;354.33;;;337.40;;
11269;SDS011;5692;48.956;9.200;2024-03-06T05:19:51;352.92;;;336.08;;
11269;SDS011;5692;48.956;9.200;2024-03-06T05:22:19;348.23;;;331.58;;
11269;SDS011;5692;48.956;9.200;2024-03-06T05:24:46;359.67;;;342.48;;
11269;SDS011;5692;48.956;9.200;2024-03-06T05:27:12;359.80;;;342.60;;
11269;SDS011;5692;48.956;9.200;2024-03-06T05:29:42;374.10;;;356.25;;
11269;SDS011;5692;48.956;9.200;2024-03-06T05:32:08;364.55;;;347.15;;
11269;SDS011;5692;48.956;9.200;2024-03-06T05:34:34;358.95;;;341.80;;
11269;SDS011;5692;48.956;9.200;2024-03-06T05:37:00;347.50;;;330.90;;
11269;SDS011;5692;48.956;9.200;2024-03-06T05:39:28;358.25;;;341.15;;
11269;SDS011;5692;48.956;9.200;2024-03-06T05:41:54;356.90;;;339.85;;
11269;SDS011;5692;48.956;9.200;2024-03-06T05:44:21;366.88;;;349.38;;
11269;SDS011;5692;48.956;9.200;2024-03-06T05:46:46;361.93;;;344.67;;
11269;SDS011;5692;48.956;9.200;2024-03-06T05:49:13;363.70;;;346.33;;
11269;SDS011;5692;48.956;9.200;2024-03-06T05:51:39;373.73;;;355.88;;
11269;SDS011;5692;48.956;9.200;2024-03-06T05:54:05;362.70;;;345.35;;
11269;SDS011;5692;48.956;9.200;2024-03-06T05:56:36;378.67;;;360.60;;
11269;SDS011;5692;48.956;9.200;2024-03-06T05:59:03;371.35;;;353.63;;
11269;SDS011;5692;48.956;9.200;2024-03-06T06:01:32;377.77;;;359.73;;
11269;SDS011;5692;48.956;9.200;2024-03-06T06:04:12;379.67;;;361.55;;
11269;SDS011;5692;48.956;9.200;2024-03-06T06:06:38;386.02;;;367.63;;
11269;SDS011;5692;48.956;9.200;2024-03-06T06:09:04;381.38;;;363.17;;
11269;SDS011;5692;48.956;9.200;2024-03-06T06:11:31;367.35;;;349.83;;
11269;SDS011;5692;48.956;9.200;2024-03-06T06:13:59;375.50;;;357.55;;
11269;SDS011;5692;48.956;9.200;2024-03-06T06:16:25;374.88;;;356.98;;
11269;SDS011;5692;48.956;9.200;2024-03-06T06:18:54;372.33;;;354.55;;
11269;SDS011;5692;48.956;9.200;2024-03-06T06:21:19;378.88;;;360.77;;
11269;SDS011;5692;48.956;9.200;2024-03-06T06:23:53;390.63;;;371.98;;
11269;SDS011;5692;48.956;9.200;2024-03-06T06:26:19;377.55;;;359.52;;
11269;SDS011;5692;48.956;9.200;2024-03-06T06:28:45;366.73;;;349.23;;
11269;SDS011;5692;48.956;9.200;2024-03-06T06:31:11;369.08;;;351.48;;
11269;SDS011;5692;48.956;9.200;2024-03-06T06:33:37;355.60;;;338.60;;
11269;SDS011;5692;48.956;9.200;2024-03-06T06:36:06;367.63;;;350.08;;
11269;SDS011;5692;48.956;9.200;2024-03-06T06:38:32;351.73;;;334.92;;
11269;SDS011;5692;48.956;9.200;2024-03-06T06:40:58;354.35;;;337.45;;
11269;SDS011;5692;48.956;9.200;2024-03-06T06:43:27;378.75;;;360.67;;
11269;SDS011;5692;48.956;9.200;2024-03-06T06:45:55;361.63;;;344.35;;
11269;SDS011;5692;48.956;9.200;2024-03-06T06:48:21;354.52;;;337.60;;
11269;SDS011;5692;48.956;9.200;2024-03-06T06:50:51;341.42;;;325.13;;
11269;SDS011;5692;48.956;9.200;2024-03-06T06:53:17;344.23;;;327.77;;
11269;SDS011;5692;48.956;9.200;2024-03-06T06:55:43;347.23;;;330.63;;
11269;SDS011;5692;48.956;9.200;2024-03-06T06:58:09;348.77;;;332.10;;
11269;SDS011;5692;48.956;9.200;2024-03-06T07:00:35;329.95;;;314.17;;
11269;SDS011;5692;48.956;9.200;2024-03-06T07:03:04;337.45;;;321.33;;
11269;SDS011;5692;48.956;9.200;2024-03-06T07:05:30;332.75;;;316.85;;
11269;SDS011;5692;48.956;9.200;2024-03-06T07:07:56;350.60;;;333.88;;
11269;SDS011;5692;48.956;9.200;2024-03-06T07:10:22;358.70;;;341.60;;
11269;SDS011;5692;48.956;9.200;2024-03-06T07:12:51;354.13;;;337.23;;
11269;SDS011;5692;48.956;9.200;2024-03-06T07:15:20;341.52;;;325.23;;
11269;SDS011;5692;48.956;9.200;2024-03-06T07:17:46;339.77;;;323.55;;
11269;SDS011;5692;48.956;9.200;2024-03-06T07:20:12;352.40;;;335.58;;
11269;SDS011;5692;48.956;9.200;2024-03-06T07:22:40;352.02;;;335.20;;
11269;SDS011;5692;48.956;9.200;2024-03-06T07:25:16;338.33;;;322.17;;
11269;SDS011;5692;48.956;9.200;2024-03-06T07:27:42;356.15;;;339.15;;
11269;SDS011;5692;48.956;9.200;2024-03-06T07:30:08;361.17;;;343.92;;
11269;SDS011;5692;48.956;9.200;2024-03-06T07:32:37;347.88;;;331.27;;
11269;SDS011;5692;48.956;9.200;2024-03-06T07:35:03;349.73;;;333.02;;
11269;SDS011;5692;48.956;9.200;2024-03-06T07:37:29;353.42;;;336.55;;
11269;SDS011;5692;48.956;9.200;2024-03-06T07:39:55;349.80;;;333.10;;
11269;SDS011;5692;48.956;9.200;2024-03-06T07:42:23;358.70;;;341.60;;
11269;SDS011;5692;48.956;9.200;2024-03-06T07:44:49;347.58;;;330.98;;
11269;SDS011;5692;48.956;9.200;2024-03-06T07:47:15;362.98;;;345.67;;
11269;SDS011;5692;48.956;9.200;2024-03-06T07:49:44;359.45;;;342.27;;
11269;SDS011;5692;48.956;9.200;2024-03-06T07:52:12;359.25;;;342.10;;
11269;SDS011;5692;48.956;9.200;2024-03-06T07:54:39;354.05;;;337.13;;
11269;SDS011;5692;48.956;9.200;2024-03-06T07:57:05;349.88;;;333.17;;
11269;SDS011;5692;48.956;9.200;2024-03-06T07:59:31;338.77;;;322.58;;
11269;SDS011;5692;48.956;9.200;2024-03-06T08:01:57;353.77;;;336.88;;
11269;SDS011;5692;48.956;9.200;2024-03-06T08:04:23;352.35;;;335.52;;
11269;SDS011;5692;48.956;9.200;2024-03-06T08:06:49;352.70;;;335.85;;
11269;SDS011;5692;48.956;9.200;2024-03-06T08:09:15;340.88;;;324.60;;
11269;SDS011;5692;48.956;9.200;2024-03-06T08:11:44;327.50;;;311.85;;
11269;SDS011;5692;48.956;9.200;2024-03-06T08:14:10;346.30;;;329.80;;
11269;SDS011;5692;48.956;9.200;2024-03-06T08:16:36;350.50;;;333.77;;
11269;SDS011;5692;48.956;9.200;2024-03-06T08:19:02;354.13;;;337.23;;
11269;SDS011;5692;48.956;9.200;2024-03-06T08:21:31;347.90;;;331.30;;
11269;SDS011;5692;48.956;9.200;2024-03-06T08:23:57;339.42;;;323.20;;
11269;SDS011;5692;48.956;9.200;2024-03-06T08:26:23;353.25;;;336.35;;
11269;SDS011;5692;48.956;9.200;2024-03-06T08:28:49;337.88;;;321.75;;
11269;SDS011;5692;48.956;9.200;2024-03-06T08:31:19;344.40;;;327.95;;
11269;SDS011;5692;48.956;9.200;2024-03-06T08:33:46;342.60;;;326.20;;
11269;SDS011;5692;48.956;9.200;2024-03-06T08:36:15;336.08;;;320.02;;
11269;SDS011;5692;48.956;9.200;2024-03-06T08:38:41;345.15;;;328.65;;
11269;SDS011;5692;48.956;9.200;2024-03-06T08:41:09;355.95;;;338.95;;
11269;SDS011;5692;48.956;9.200;2024-03-06T08:43:35;354.90;;;337.95;;
11269;SDS011;5692;48.956;9.200;2024-03-06T08:46:10;350.75;;;334.00;;
11269;SDS011;5692;48.956;9.200;2024-03-06T08:48:39;357.40;;;340.33;;
11269;SDS011;5692;48.956;9.200;2024-03-06T08:51:09;351.35;;;334.60;;
11269;SDS011;5692;48.956;9.200;2024-03-06T08:53:36;364.45;;;347.05;;
11269;SDS011;5692;48.956;9.200;2024-03-06T08:56:05;366.30;;;348.80;;
11269;SDS011;5692;48.956;9.200;2024-03-06T08:58:31;369.20;;;351.58;;
11269;SDS011;5692;48.956;9.200;2024-03-06T09:00:57;364.52;;;347.13;;
11269;SDS011;5692;48.956;9.200;2024-03-06T09:03:26;353.25;;;336.35;;
11269;SDS011;5692;48.956;9.200;2024-03-06T09:05:52;347.13;;;330.52;;
11269;SDS011;5692;48.956;9.200;2024-03-06T09:08:18;358.48;;;341.35;;
11269;SDS011;5692;48.956;9.200;2024-03-06T09:10:45;335.35;;;319.35;;
11269;SDS011;5692;48.956;9.200;2024-03-06T09:13:11;342.23;;;325.88;;
11269;SDS011;5692;48.956;9.200;2024-03-06T09:15:37;342.80;;;326.42;;
11269;SDS011;5692;48.956;9.200;2024-03-06T09:18:03;338.60;;;322.42;;
11269;SDS011;5692;48.956;9.200;2024-03-06T09:20:29;340.35;;;324.10;;
11269;SDS011;5692;48.956;9.200;2024-03-06T09:22:55;344.92;;;328.42;;
11269;SDS011;5692;48.956;9.200;2024-03-06T09:25:22;337.40;;;321.30;;
11269;SDS011;5692;48.956;9.200;2024-03-06T09:27:57;348.88;;;332.20;;
11269;SDS011;5692;48.956;9.200;2024-03-06T09:30:30;345.40;;;328.90;;
11269;SDS011;5692;48.956;9.200;2024-03-06T09:32:56;340.75;;;324.45;;
11269;SDS011;5692;48.956;9.200;2024-03-06T09:35:22;341.67;;;325.38;;
11269;SDS011;5692;48.956;9.200;2024-03-06T09:37:48;346.52;;;329.98;;
11269;SDS011;5692;48.956;9.200;2024-03-06T09:40:21;350.88;;;334.08;;
11269;SDS011;5692;48.956;9.200;2024-03-06T09:42:49;357.58;;;340.50;;
11269;SDS011;5692;48.956;9.200;2024-03-06T09:45:16;368.05;;;350.45;;
11269;SDS011;5692;48.956;9.200;2024-03-06T09:47:58;344.85;;;328.38;;
11269;SDS011;5692;48.956;9.200;2024-03-06T09:50:49;355.10;;;338.15;;
11269;SDS011;5692;48.956;9.200;2024-03-06T09:53:17;351.70;;;334.90;;
11269;SDS011;5692;48.956;9.200;2024-03-06T09:55:44;360.92;;;343.73;;
11269;SDS011;5692;48.956;9.200;2024-03-06T09:58:15;357.00;;;339.95;;
11269;SDS011;5692;48.956;9.200;2024-03-06T10:00:44;354.20;;;337.27;;
11269;SDS011;5692;48.956;9.200;2024-03-06T10:03:12;360.70;;;343.50;;
11269;SDS011;5692;48.956;9.200;2024-03-06T10:05:47;351.00;;;334.23;;
11269;SDS011;5692;48.956;9.200;2024-03-06T10:08:19;344.27;;;327.83;;
11269;SDS011;5692;48.956;9.200;2024-03-06T10:10:47;344.83;;;328.35;;
11269;SDS011;5692;48.956;9.200;2024-03-06T10:13:16;327.95;;;312.30;;
11269;SDS011;5692;48.956;9.200;2024-03-06T10:15:54;346.20;;;329.70;;
11269;SDS011;5692;48.956;9.200;2024-03-06T10:18:26;341.70;;;325.40;;
11269;SDS011;5692;48.956;9.200;2024-03-06T10:20:52;333.90;;;317.95;;
11269;SDS011;5692;48.956;9.200;2024-03-06T10:23:18;337.10;;;321.00;;
11269;SDS011;5692;48.956;9.200;2024-03-06T10:25:54;362.88;;;345.55;;
11269;SDS011;5692;48.956;9.200;2024-03-06T10:28:23;346.27;;;329.75;;
11269;SDS011;5692;48.956;9.200;2024-03-06T10:30:49;368.10;;;350.52;;
11269;SDS011;5692;48.956;9.200;2024-03-06T10:33:17;359.83;;;342.63;;
11269;SDS011;5692;48.956;9.200;2024-03-06T10:35:44;364.02;;;346.65;;
11269;SDS011;5692;48.956;9.200;2024-03-06T10:38:13;356.67;;;339.67;;
11269;SDS011;5692;48.956;9.200;2024-03-06T10:40:42;360.38;;;343.15;;
11269;SDS011;5692;48.956;9.200;2024-03-06T10:43:11;343.02;;;326.63;;
11269;SDS011;5692;48.956;9.200;2024-03-06T10:45:41;356.77;;;339.73;;
11269;SDS011;5692;48.956;9.200;2024-03-06T10:48:21;349.08;;;332.40;;
11269;SDS011;5692;48.956;9.200;2024-03-06T10:50:50;334.33;;;318.33;;
11269;SDS011;5692;48.956;9.200;2024-03-06T10:53:26;359.05;;;341.90;;
11269;SDS011;5692;48.956;9.200;2024-03-06T10:55:53;340.13;;;323.88;;
11269;SDS011;5692;48.956;9.200;2024-03-06T10:58:27;355.20;;;338.23;;
11269;SDS011;5692;48.956;9.200;2024-03-06T11:00:54;346.33;;;329.77;;
11269;SDS011;5692;48.956;9.200;2024-03-06T11:03:24;346.38;;;329.85;;
11269;SDS011;5692;48.956;9.200;2024-03-06T11:06:01;360.70;;;343.50;;
11269;SDS011;5692;48.956;9.200;2024-03-06T11:08:31;341.15;;;324.88;;
11269;SDS011;5692;48.956;9.200;2024-03-06T11:34:44;344.02;;;327.60;;
11269;SDS011;5692;48.956;9.200;2024-03-06T11:37:13;347.55;;;330.95;;
11269;SDS011;5692;48.956;9.200;2024-03-06T11:53:09;326.10;;;310.50;;
11269;SDS011;5692;48.956;9.200;2024-03-06T11:55:37;329.02;;;313.33;;
11269;SDS011;5692;48.956;9.200;2024-03-06T11:58:04;332.48;;;316.58;;
11269;SDS011;5692;48.956;9.200;2024-03-06T12:00:32;339.15;;;322.95;;
11269;SDS011;5692;48.956;9.200;2024-03-06T12:02:58;359.63;;;342.42;;
11269;SDS011;5692;48.956;9.200;2024-03-06T12:05:24;358.77;;;341.67;;
11269;SDS011;5692;48.956;9.200;2024-03-06T12:07:52;328.45;;;312.75;;
11269;SDS011;5692;48.956;9.200;2024-03-06T12:10:21;330.00;;;314.25;;
11269;SDS011;5692;48.956;9.200;2024-03-06T12:12:49;310.85;;;296.00;;
11269;SDS011;5692;48.956;9.200;2024-03-06T12:15:15;320.42;;;305.13;;
11269;SDS011;5692;48.956;9.200;2024-03-06T12:17:57;319.90;;;304.60;;
11269;SDS011;5692;48.956;9.200;2024-03-06T12:20:40;318.75;;;303.52;;
11269;SDS011;5692;48.956;9.200;2024-03-06T12:23:18;331.65;;;315.80;;
11269;SDS011;5692;48.956;9.200;2024-03-06T12:25:44;333.63;;;317.67;;
11269;SDS011;5692;48.956;9.200;2024-03-06T12:28:10;309.20;;;294.40;;
11269;SDS011;5692;48.956;9.200;2024-03-06T12:30:42;342.10;;;325.77;;
11269;SDS011;5692;48.956;9.200;2024-03-06T12:33:09;339.23;;;323.02;;
11269;SDS011;5692;48.956;9.200;2024-03-06T12:35:42;340.23;;;323.98;;
11269;SDS011;5692;48.956;9.200;2024-03-06T12:38:14;340.63;;;324.33;;
11269;SDS011;5692;48.956;9.200;2024-03-06T12:40:41;340.40;;;324.13;;
11269;SDS011;5692;48.956;9.200;2024-03-06T12:43:12;349.17;;;332.48;;
11269;SDS011;5692;48.956;9.200;2024-03-06T12:45:40;352.63;;;335.77;;
11269;SDS011;5692;48.956;9.200;2024-03-06T12:48:06;357.03;;;339.97;;
11269;SDS011;5692;48.956;9.200;2024-03-06T12:50:59;364.63;;;347.20;;
11269;SDS011;5692;48.956;9.200;2024-03-06T12:53:29;359.33;;;342.17;;
11269;SDS011;5692;48.956;9.200;2024-03-06T12:56:05;359.77;;;342.58;;
11269;SDS011;5692;48.956;9.200;2024-03-06T12:58:40;346.55;;;330.00;;
11269;SDS011;5692;48.956;9.200;2024-03-06T13:01:06;338.40;;;322.23;;
11269;SDS011;5692;48.956;9.200;2024-03-06T13:03:40;315.40;;;300.35;;
11269;SDS011;5692;48.956;9.200;2024-03-06T13:06:09;313.63;;;298.65;;
11269;SDS011;5692;48.956;9.200;2024-03-06T13:08:43;323.85;;;308.38;;
11269;SDS011;5692;48.956;9.200;2024-03-06T13:11:12;336.15;;;320.10;;
11269;SDS011;5692;48.956;9.200;2024-03-06T13:13:38;325.33;;;309.80;;
11269;SDS011;5692;48.956;9.200;2024-03-06T13:16:04;334.67;;;318.67;;
11269;SDS011;5692;48.956;9.200;2024-03-06T13:18:30;328.73;;;313.02;;
11269;SDS011;5692;48.956;9.200;2024-03-06T13:23:54;350.58;;;333.83;;
11269;SDS011;5692;48.956;9.200;2024-03-06T13:33:34;390.15;;;371.52;;
11269;SDS011;5692;48.956;9.200;2024-03-06T13:36:00;383.23;;;364.95;;
11269;SDS011;5692;48.956;9.200;2024-03-06T13:38:35;363.80;;;346.45;;
11269;SDS011;5692;48.956;9.200;2024-03-06T13:41:01;352.10;;;335.30;;
11269;SDS011;5692;48.956;9.200;2024-03-06T13:43:29;366.42;;;348.92;;
11269;SDS011;5692;48.956;9.200;2024-03-06T13:45:56;371.80;;;354.05;;
11269;SDS011;5692;48.956;9.200;2024-03-06T13:48:22;377.90;;;359.85;;
11269;SDS011;5692;48.956;9.200;2024-03-06T13:50:51;385.60;;;367.17;;
11269;SDS011;5692;48.956;9.200;2024-03-06T13:53:17;377.73;;;359.70;;
11269;SDS011;5692;48.956;9.200;2024-03-06T13:55:51;392.55;;;373.83;;
11269;SDS011;5692;48.956;9.200;2024-03-06T13:58:17;378.50;;;360.40;;
11269;SDS011;5692;48.956;9.200;2024-03-06T14:00:58;387.73;;;369.20;;
11269;SDS011;5692;48.956;9.200;2024-03-06T14:03:33;381.40;;;363.17;;
11269;SDS011;5692;48.956;9.200;2024-03-06T14:06:03;390.45;;;371.80;;
11269;SDS011;5692;48.956;9.200;2024-03-06T14:08:32;373.65;;;355.83;;
11269;SDS011;5692;48.956;9.200;2024-03-06T14:17:08;395.00;;;376.13;;
11269;SDS011;5692;48.956;9.200;2024-03-06T14:19:34;385.38;;;366.98;;
11269;SDS011;5692;48.956;9.200;2024-03-06T14:22:07;399.70;;;380.63;;
11269;SDS011;5692;48.956;9.200;2024-03-06T14:24:33;404.35;;;385.02;;
11269;SDS011;5692;48.956;9.200;2024-03-06T14:27:00;392.05;;;373.35;;
11269;SDS011;5692;48.956;9.200;2024-03-06T14:29:29;398.15;;;379.15;;
11269;SDS011;5692;48.956;9.200;2024-03-06T14:31:56;391.10;;;372.42;;
11269;SDS011;5692;48.956;9.200;2024-03-06T14:34:22;396.70;;;377.75;;
11269;SDS011;5692;48.956;9.200;2024-03-06T14:36:49;405.13;;;385.77;;
11269;SDS011;5692;48.956;9.200;2024-03-06T14:39:15;376.98;;;358.98;;
11269;SDS011;5692;48.956;9.200;2024-03-06T14:41:59;391.73;;;373.02;;
11269;SDS011;5692;48.956;9.200;2024-03-06T14:44:28;398.80;;;379.77;;
11269;SDS011;5692;48.956;9.200;2024-03-06T14:46:54;391.98;;;373.27;;
11269;SDS011;5692;48.956;9.200;2024-03-06T14:49:20;400.73;;;381.63;;
11269;SDS011;5692;48.956;9.200;2024-03-06T14:51:47;401.25;;;382.08;;
11269;SDS011;5692;48.956;9.200;2024-03-06T14:54:16;405.10;;;385.77;;
11269;SDS011;5692;48.956;9.200;2024-03-06T14:56:42;390.95;;;372.27;;
11269;SDS011;5692;48.956;9.200;2024-03-06T14:59:08;393.75;;;374.95;;
11269;SDS011;5692;48.956;9.200;2024-03-06T15:01:37;371.38;;;353.67;;
11269;SDS011;5692;48.956;9.200;2024-03-06T15:04:14;392.25;;;373.52;;
11269;SDS011;5692;48.956;9.200;2024-03-06T15:06:43;383.55;;;365.23;;